createdAt,value
2018-02-20T00:01:07.580Z,13.00
2018-02-20T00:03:35.890Z,15.23
2018-02-20T00:06:04.311Z,12.13
2018-02-20T00:08:32.631Z,12.80
2018-02-20T00:11:00.907Z,12.77
2018-02-20T00:13:29.272Z,12.30
2018-02-20T00:15:57.565Z,13.53
2018-02-20T00:18:25.881Z,13.00
2018-02-20T00:20:54.152Z,13.85
2018-02-20T00:23:22.542Z,13.30
2018-02-20T00:25:50.855Z,13.77
2018-02-20T00:28:19.165Z,13.43
2018-02-20T00:30:47.433Z,13.67
2018-02-20T00:33:15.696Z,13.57
2018-02-20T00:35:43.986Z,13.87
2018-02-20T00:38:12.251Z,13.20
2018-02-20T00:40:40.545Z,13.40
2018-02-20T00:43:08.817Z,13.53
2018-02-20T00:45:37.140Z,13.40
2018-02-20T00:48:05.404Z,13.13
2018-02-20T00:50:33.736Z,13.40
2018-02-20T00:53:02.007Z,13.37
2018-02-20T00:55:30.378Z,13.03
2018-02-20T00:57:58.624Z,12.33
2018-02-20T01:00:26.963Z,14.00
2018-02-20T01:02:55.246Z,13.77
2018-02-20T01:05:23.555Z,13.80
2018-02-20T01:07:51.865Z,14.60
2018-02-20T01:10:20.135Z,15.23
2018-02-20T01:12:48.435Z,14.27
2018-02-20T01:15:16.729Z,14.40
2018-02-20T01:17:45.074Z,15.67
2018-02-20T01:20:13.358Z,13.87
2018-02-20T01:22:41.728Z,14.07
2018-02-20T01:25:09.972Z,14.23
2018-02-20T01:27:38.548Z,14.30
2018-02-20T01:30:06.828Z,13.70
2018-02-20T01:32:35.163Z,14.20
2018-02-20T01:35:03.465Z,13.60
2018-02-20T01:37:31.762Z,13.30
2018-02-20T01:40:00.062Z,13.53
2018-02-20T01:42:28.336Z,15.30
2018-02-20T01:44:56.655Z,14.00
2018-02-20T01:47:24.951Z,16.77
2018-02-20T01:49:53.246Z,17.47
2018-02-20T01:52:21.521Z,16.75
2018-02-20T01:54:49.835Z,17.60
2018-02-20T01:57:18.099Z,15.77
2018-02-20T01:59:46.428Z,17.10
2018-02-20T02:02:14.704Z,16.70
2018-02-20T02:04:43.005Z,15.93
2018-02-20T02:07:11.304Z,17.85
2018-02-20T02:09:39.601Z,17.40
2018-02-20T02:12:07.881Z,18.40
2018-02-20T02:14:36.189Z,19.20
2018-02-20T02:17:04.817Z,18.17
2018-02-20T02:19:33.107Z,19.90
2018-02-20T02:22:01.465Z,19.90
2018-02-20T02:24:29.750Z,19.00
2018-02-20T02:26:58.055Z,19.20
2018-02-20T02:29:26.346Z,20.67
2018-02-20T02:31:54.640Z,20.60
2018-02-20T02:34:22.973Z,21.00
2018-02-20T02:36:51.225Z,20.80
2018-02-20T02:39:19.523Z,20.35
2018-02-20T02:41:47.807Z,19.90
2018-02-20T02:44:16.083Z,19.70
2018-02-20T02:46:44.356Z,20.47
2018-02-20T02:49:12.672Z,20.93
2018-02-20T02:51:40.945Z,21.50
2018-02-20T02:54:09.292Z,20.87
2018-02-20T02:56:37.560Z,20.40
2018-02-20T02:59:05.872Z,20.70
2018-02-20T03:01:34.190Z,19.60
2018-02-20T03:04:02.450Z,20.60
2018-02-20T03:06:30.759Z,17.50
2018-02-20T03:08:59.042Z,17.90
2018-02-20T03:11:27.332Z,16.80
2018-02-20T03:13:55.611Z,17.10
2018-02-20T03:16:23.924Z,18.00
2018-02-20T03:18:52.244Z,17.00
2018-02-20T03:21:20.524Z,17.62
2018-02-20T03:23:48.824Z,15.77
2018-02-20T03:26:17.101Z,16.73
2018-02-20T03:28:45.404Z,18.05
2018-02-20T03:31:13.688Z,16.70
2018-02-20T03:33:41.959Z,17.93
2018-02-20T03:36:10.288Z,18.55
2018-02-20T03:38:38.584Z,19.50
2018-02-20T03:41:06.878Z,19.73
2018-02-20T03:43:35.154Z,18.53
2018-02-20T03:46:03.487Z,18.60
2018-02-20T03:48:31.806Z,18.77
2018-02-20T03:51:00.095Z,16.73
2018-02-20T03:53:28.391Z,18.93
2018-02-20T03:55:56.673Z,17.93
2018-02-20T03:58:24.972Z,18.07
2018-02-20T04:00:53.256Z,19.20
2018-02-20T04:03:21.785Z,18.07
2018-02-20T04:05:50.131Z,18.60
2018-02-20T04:08:18.700Z,17.67
2018-02-20T04:10:47.025Z,17.80
2018-02-20T04:13:15.317Z,18.20
2018-02-20T04:15:43.605Z,18.47
2018-02-20T04:18:11.892Z,17.53
2018-02-20T04:20:40.200Z,17.00
2018-02-20T04:23:08.467Z,17.27
2018-02-20T04:25:36.788Z,16.37
2018-02-20T04:28:05.060Z,16.97
2018-02-20T04:30:33.374Z,18.62
2018-02-20T04:33:01.690Z,18.00
2018-02-20T04:35:29.995Z,18.60
2018-02-20T04:37:58.269Z,19.87
2018-02-20T04:40:26.562Z,20.23
2018-02-20T04:42:54.847Z,19.80
2018-02-20T04:45:23.147Z,20.67
2018-02-20T04:47:51.445Z,19.00
2018-02-20T04:50:20.631Z,19.00
2018-02-20T04:52:48.896Z,19.90
2018-02-20T04:55:17.196Z,19.90
2018-02-20T04:57:45.468Z,20.97
2018-02-20T05:00:13.801Z,19.67
2018-02-20T05:02:42.075Z,21.43
2018-02-20T05:05:10.369Z,20.47
2018-02-20T05:07:38.653Z,21.30
2018-02-20T05:10:07.687Z,21.65
2018-02-20T05:12:35.966Z,20.60
2018-02-20T05:15:04.251Z,21.23
2018-02-20T05:17:32.614Z,19.87
2018-02-20T05:20:00.927Z,18.35
2018-02-20T05:22:29.215Z,19.37
2018-02-20T05:24:57.575Z,19.77
2018-02-20T05:27:25.868Z,19.13
2018-02-20T05:29:54.182Z,18.60
2018-02-20T05:32:22.491Z,19.65
2018-02-20T05:34:50.787Z,19.02
2018-02-20T05:37:19.071Z,18.50
2018-02-20T05:39:47.347Z,19.27
2018-02-20T05:42:15.644Z,18.73
2018-02-20T05:44:43.903Z,20.03
2018-02-20T05:47:12.251Z,31.92
2018-02-20T05:49:40.536Z,18.57
2018-02-20T05:52:08.870Z,18.33
2018-02-20T05:54:37.139Z,18.57
2018-02-20T05:57:05.404Z,18.80
2018-02-20T05:59:33.730Z,20.03
2018-02-20T06:02:02.034Z,19.30
2018-02-20T06:04:30.326Z,20.77
2018-02-20T06:06:58.588Z,18.23
2018-02-20T06:09:26.912Z,19.30
2018-02-20T06:11:55.220Z,18.70
2018-02-20T06:14:23.533Z,19.33
2018-02-20T06:16:51.857Z,20.27
2018-02-20T06:19:20.124Z,20.13
2018-02-20T06:21:48.435Z,20.60
2018-02-20T06:24:16.803Z,21.93
2018-02-20T06:26:45.068Z,20.87
2018-02-20T06:29:13.402Z,21.87
2018-02-20T06:31:41.674Z,19.40
2018-02-20T06:34:09.975Z,19.33
2018-02-20T06:36:38.311Z,20.23
2018-02-20T06:39:06.611Z,19.83
2018-02-20T06:41:34.970Z,19.20
2018-02-20T06:44:03.270Z,18.87
2018-02-20T06:46:31.608Z,19.47
2018-02-20T06:48:59.915Z,20.10
2018-02-20T06:51:28.235Z,20.70
2018-02-20T06:53:56.528Z,21.43
2018-02-20T06:56:24.838Z,21.53
2018-02-20T06:58:53.138Z,21.90
2018-02-20T07:01:21.447Z,21.92
2018-02-20T07:03:49.739Z,21.20
2018-02-20T07:06:18.045Z,21.77
2018-02-20T07:08:46.348Z,22.20
2018-02-20T07:11:14.666Z,22.00
2018-02-20T07:13:43.074Z,23.40
2018-02-20T07:16:11.960Z,22.85
2018-02-20T07:18:40.274Z,22.50
2018-02-20T07:21:08.589Z,20.73
2018-02-20T07:23:36.885Z,21.20
2018-02-20T07:26:05.698Z,22.25
2018-02-20T07:28:33.974Z,22.37
2018-02-20T07:31:02.263Z,21.73
2018-02-20T07:33:30.544Z,21.37
2018-02-20T07:35:58.859Z,21.70
2018-02-20T07:38:27.190Z,23.20
2018-02-20T07:40:55.483Z,22.80
2018-02-20T07:43:23.779Z,21.30
2018-02-20T07:45:52.196Z,23.83
2018-02-20T07:48:20.489Z,22.62
2018-02-20T07:50:48.834Z,22.27
2018-02-20T07:53:17.197Z,23.25
2018-02-20T07:55:45.550Z,21.93
2018-02-20T07:58:13.866Z,22.30
2018-02-20T08:00:42.762Z,21.83
2018-02-20T08:03:11.108Z,21.30
2018-02-20T08:05:39.994Z,24.23
2018-02-20T08:08:08.403Z,21.30
2018-02-20T08:10:36.726Z,22.37
2018-02-20T08:13:05.798Z,22.13
2018-02-20T08:15:34.080Z,21.10
2018-02-20T08:18:02.437Z,24.05
2018-02-20T08:20:30.860Z,23.80
2018-02-20T08:22:59.111Z,23.97
2018-02-20T08:25:27.437Z,23.30
2018-02-20T08:27:55.727Z,23.83
2018-02-20T08:30:24.040Z,22.00
2018-02-20T08:32:52.351Z,22.57
2018-02-20T08:35:20.682Z,22.40
2018-02-20T08:37:48.961Z,20.70
2018-02-20T08:40:17.336Z,21.80
2018-02-20T08:42:45.614Z,23.30
2018-02-20T08:45:13.958Z,21.60
2018-02-20T08:47:42.259Z,22.07
2018-02-20T08:50:10.560Z,21.12
2018-02-20T08:52:38.882Z,21.77
2018-02-20T08:55:07.162Z,20.53
2018-02-20T08:57:35.483Z,20.35
2018-02-20T09:00:03.779Z,21.77
2018-02-20T09:02:32.113Z,19.47
2018-02-20T09:05:00.376Z,20.20
2018-02-20T09:07:29.444Z,18.70
2018-02-20T09:09:57.772Z,19.30
2018-02-20T09:12:26.048Z,21.00
2018-02-20T09:14:54.678Z,19.90
2018-02-20T09:17:23.022Z,19.48
2018-02-20T09:19:51.366Z,19.47
2018-02-20T09:22:19.636Z,19.85
2018-02-20T09:24:47.979Z,19.60
2018-02-20T09:27:16.294Z,17.98
2018-02-20T09:29:44.584Z,19.10
2018-02-20T09:32:12.888Z,17.05
2018-02-20T09:34:41.220Z,17.05
2018-02-20T09:37:09.527Z,17.53
2018-02-20T09:39:37.930Z,18.70
2018-02-20T09:42:07.380Z,16.10
2018-02-20T09:44:35.685Z,16.50
2018-02-20T09:47:04.222Z,17.42
2018-02-20T09:49:32.564Z,16.80
2018-02-20T09:52:00.916Z,16.57
2018-02-20T09:54:29.233Z,15.40
2018-02-20T09:56:57.564Z,16.20
2018-02-20T09:59:25.889Z,15.13
2018-02-20T10:01:54.196Z,14.10
2018-02-20T10:04:22.564Z,14.80
2018-02-20T10:06:51.110Z,14.43
2018-02-20T10:09:20.038Z,14.07
2018-02-20T10:11:48.399Z,13.70
2018-02-20T10:14:16.729Z,15.52
2018-02-20T10:16:45.040Z,13.27
2018-02-20T10:19:13.300Z,10.77
2018-02-20T10:21:41.646Z,13.70
2018-02-20T10:24:09.917Z,11.80
2018-02-20T10:26:38.216Z,11.37
2018-02-20T10:29:06.494Z,10.77
2018-02-20T10:31:34.820Z,11.60
2018-02-20T10:34:03.093Z,14.53
2018-02-20T10:36:31.500Z,14.70
2018-02-20T10:38:59.723Z,11.20
2018-02-20T10:41:28.053Z,10.50
2018-02-20T10:43:56.437Z,12.20
2018-02-20T10:46:24.768Z,8.70
2018-02-20T10:48:53.160Z,9.82
2018-02-20T10:51:21.435Z,10.47
2018-02-20T10:53:49.760Z,10.13
2018-02-20T10:56:18.061Z,10.20
2018-02-20T10:58:46.383Z,10.10
2018-02-20T11:01:14.698Z,11.88
2018-02-20T11:03:43.088Z,12.90
2018-02-20T11:06:11.410Z,13.90
2018-02-20T11:08:39.848Z,13.67
2018-02-20T11:11:08.156Z,12.43
2018-02-20T11:13:36.489Z,13.77
2018-02-20T11:16:05.618Z,13.45
2018-02-20T11:18:33.963Z,12.33
2018-02-20T11:21:02.308Z,13.80
2018-02-20T11:23:30.589Z,12.43
2018-02-20T11:25:58.905Z,11.73
2018-02-20T11:28:27.225Z,9.33
2018-02-20T11:30:55.579Z,14.02
2018-02-20T11:33:23.899Z,10.90
2018-02-20T11:35:52.224Z,12.40
2018-02-20T11:38:20.534Z,13.97
2018-02-20T11:40:48.873Z,12.27
2018-02-20T11:43:17.186Z,12.30
2018-02-20T11:45:45.464Z,11.15
2018-02-20T11:48:13.884Z,10.60
2018-02-20T11:50:42.181Z,11.95
2018-02-20T11:53:10.544Z,12.23
2018-02-20T11:55:38.864Z,11.50
2018-02-20T11:58:07.154Z,11.97
2018-02-20T12:00:35.425Z,12.10
2018-02-20T12:03:03.790Z,10.90
2018-02-20T12:05:32.061Z,11.53
2018-02-20T12:08:00.412Z,10.70
2018-02-20T12:10:28.709Z,11.52
2018-02-20T12:12:57.028Z,11.80
2018-02-20T12:15:25.391Z,11.97
2018-02-20T12:17:53.646Z,12.40
2018-02-20T12:20:21.990Z,11.55
2018-02-20T12:22:50.343Z,13.10
2018-02-20T12:25:18.663Z,12.67
2018-02-20T12:27:47.000Z,11.03
2018-02-20T12:30:15.427Z,11.20
2018-02-20T12:32:43.726Z,10.63
2018-02-20T12:35:12.363Z,12.30
2018-02-20T12:37:40.758Z,11.50
2018-02-20T12:40:09.071Z,11.57
2018-02-20T12:42:38.028Z,11.93
2018-02-20T12:45:06.293Z,12.60
2018-02-20T12:47:34.614Z,11.60
2018-02-20T12:50:02.960Z,13.17
2018-02-20T12:52:31.325Z,13.87
2018-02-20T12:54:59.641Z,13.30
2018-02-20T12:57:28.008Z,13.03
2018-02-20T12:59:56.375Z,12.47
2018-02-20T13:02:24.727Z,12.98
2018-02-20T13:04:53.004Z,12.37
2018-02-20T13:07:22.257Z,12.70
2018-02-20T13:09:50.524Z,12.43
2018-02-20T13:12:18.809Z,12.43
2018-02-20T13:14:47.108Z,11.43
2018-02-20T13:17:15.425Z,12.35
2018-02-20T13:19:43.867Z,12.00
2018-02-20T13:22:12.284Z,12.75
2018-02-20T13:24:40.596Z,12.70
2018-02-20T13:27:08.970Z,12.60
2018-02-20T13:29:37.281Z,12.33
2018-02-20T13:32:05.819Z,11.87
2018-02-20T13:34:34.159Z,13.50
2018-02-20T13:37:02.454Z,14.07
2018-02-20T13:39:30.735Z,14.35
2018-02-20T13:41:59.065Z,12.47
2018-02-20T13:44:27.399Z,12.57
2018-02-20T13:46:55.727Z,12.90
2018-02-20T13:49:23.998Z,12.60
2018-02-20T13:51:52.392Z,12.93
2018-02-20T13:54:20.684Z,13.82
2018-02-20T13:56:49.049Z,11.90
2018-02-20T13:59:17.343Z,13.57
2018-02-20T14:01:45.689Z,12.00
2018-02-20T14:04:13.985Z,12.50
2018-02-20T14:06:42.283Z,13.37
2018-02-20T14:09:10.651Z,12.32
2018-02-20T14:11:39.116Z,12.13
2018-02-20T14:14:07.514Z,15.23
2018-02-20T14:16:35.861Z,12.60
2018-02-20T14:19:04.334Z,11.80
2018-02-20T14:21:32.784Z,11.07
2018-02-20T14:24:02.125Z,11.63
2018-02-20T14:26:30.513Z,11.73
2018-02-20T14:28:59.349Z,11.00
2018-02-20T14:31:27.638Z,12.20
2018-02-20T14:33:56.288Z,12.20
2018-02-20T14:36:24.629Z,13.27
2018-02-20T14:38:53.006Z,11.20
2018-02-20T14:41:21.343Z,12.77
2018-02-20T14:43:49.644Z,11.50
2018-02-20T14:46:17.959Z,11.40
2018-02-20T14:48:46.280Z,13.10
2018-02-20T14:51:14.761Z,12.23
2018-02-20T14:53:43.093Z,13.70
2018-02-20T14:56:12.275Z,14.43
2018-02-20T14:58:40.594Z,12.57
2018-02-20T15:01:08.897Z,12.60
2018-02-20T15:03:37.607Z,12.77
2018-02-20T15:06:05.906Z,14.13
2018-02-20T15:08:34.280Z,13.00
2018-02-20T15:11:02.582Z,12.90
2018-02-20T15:13:30.962Z,12.70
2018-02-20T15:15:59.237Z,12.40
2018-02-20T15:18:27.560Z,13.07
2018-02-20T15:20:55.851Z,12.67
2018-02-20T15:23:24.226Z,12.50
2018-02-20T15:25:52.566Z,13.60
2018-02-20T15:28:20.924Z,14.00
2018-02-20T15:30:49.263Z,14.13
2018-02-20T15:33:17.592Z,13.68
2018-02-20T15:35:45.978Z,13.20
2018-02-20T15:38:14.830Z,12.53
2018-02-20T15:40:44.129Z,11.23
2018-02-20T15:43:12.452Z,13.88
2018-02-20T15:45:40.849Z,13.60
2018-02-20T15:48:09.475Z,11.75
2018-02-20T15:50:37.776Z,16.40
2018-02-20T15:53:06.100Z,13.73
2018-02-20T15:55:35.243Z,15.70
2018-02-20T15:58:03.595Z,15.30
2018-02-20T16:00:32.728Z,14.80
2018-02-20T16:03:01.061Z,15.07
2018-02-20T16:05:29.367Z,17.17
2018-02-20T16:07:57.728Z,15.50
2018-02-20T16:10:25.992Z,15.93
2018-02-20T16:12:54.411Z,18.03
2018-02-20T16:15:22.752Z,16.00
2018-02-20T16:17:51.041Z,16.70
2018-02-20T16:20:19.814Z,17.05
2018-02-20T16:22:48.115Z,16.60
2018-02-20T16:25:16.437Z,21.77
2018-02-20T16:27:44.816Z,17.23
2018-02-20T16:30:14.174Z,18.37
2018-02-20T16:32:42.530Z,16.97
2018-02-20T16:35:11.958Z,17.08
2018-02-20T16:37:40.306Z,18.57
2018-02-20T16:40:08.616Z,16.83
2018-02-20T16:42:36.910Z,18.30
2018-02-20T16:45:05.377Z,18.62
2018-02-20T16:47:33.749Z,18.13
2018-02-20T16:50:02.105Z,17.03
2018-02-20T16:52:30.391Z,17.30
2018-02-20T16:54:58.901Z,18.33
2018-02-20T16:57:28.167Z,17.60
2018-02-20T16:59:57.388Z,18.30
2018-02-20T17:02:25.864Z,18.73
2018-02-20T17:04:54.185Z,19.33
2018-02-20T17:07:22.521Z,19.12
2018-02-20T17:09:50.845Z,19.80
2018-02-20T17:12:19.157Z,19.83
2018-02-20T17:14:47.533Z,19.90
2018-02-20T17:17:15.822Z,21.10
2018-02-20T17:19:44.165Z,19.70
2018-02-20T17:22:12.469Z,19.73
2018-02-20T17:24:40.849Z,19.27
2018-02-20T17:27:09.139Z,19.95
2018-02-20T17:29:37.489Z,19.33
2018-02-20T17:32:05.824Z,19.23
2018-02-20T17:34:34.152Z,18.90
2018-02-20T17:37:02.477Z,19.17
2018-02-20T17:39:30.813Z,20.60
2018-02-20T17:41:59.096Z,19.10
2018-02-20T17:44:27.505Z,18.90
2018-02-20T17:46:55.963Z,20.50
2018-02-20T17:49:24.281Z,20.00
2018-02-20T17:51:52.596Z,20.63
2018-02-20T17:54:20.884Z,20.43
2018-02-20T17:56:49.240Z,21.93
2018-02-20T17:59:17.542Z,20.65
2018-02-20T18:01:45.901Z,19.80
2018-02-20T18:04:14.184Z,19.17
2018-02-20T18:06:42.473Z,19.40
2018-02-20T18:09:10.797Z,19.40
2018-02-20T18:11:39.102Z,18.73
2018-02-20T18:14:07.585Z,21.00
2018-02-20T18:16:35.803Z,19.60
2018-02-20T18:19:04.772Z,20.60
2018-02-20T18:21:33.039Z,21.07
2018-02-20T18:24:01.441Z,20.40
2018-02-20T18:26:29.752Z,20.70
2018-02-20T18:28:58.075Z,19.75
2018-02-20T18:31:26.392Z,20.17
2018-02-20T18:33:54.740Z,19.23
2018-02-20T18:36:23.036Z,20.57
2018-02-20T18:38:51.344Z,20.83
2018-02-20T18:41:19.679Z,21.67
2018-02-20T18:43:47.956Z,21.57
2018-02-20T18:46:16.268Z,21.23
2018-02-20T18:48:44.558Z,21.33
2018-02-20T18:51:12.925Z,20.20
2018-02-20T18:53:41.247Z,19.95
2018-02-20T18:56:09.526Z,20.08
2018-02-20T18:58:37.917Z,19.03
2018-02-20T19:01:06.197Z,20.60
2018-02-20T19:03:34.794Z,21.27
2018-02-20T19:06:03.106Z,21.58
2018-02-20T19:08:31.473Z,21.70
2018-02-20T19:10:59.784Z,21.00
2018-02-20T19:13:28.230Z,21.30
2018-02-20T19:15:56.649Z,21.42
2018-02-20T19:18:24.984Z,20.50
2018-02-20T19:20:53.289Z,20.00
2018-02-20T19:23:21.611Z,21.80
2018-02-20T19:25:49.965Z,21.27
2018-02-20T19:28:18.240Z,22.23
2018-02-20T19:30:46.910Z,21.40
2018-02-20T19:33:15.192Z,22.97
2018-02-20T19:35:43.539Z,23.30
2018-02-20T19:38:11.829Z,23.45
2018-02-20T19:40:40.135Z,23.40
2018-02-20T19:43:08.415Z,23.67
2018-02-20T19:45:36.744Z,23.90
2018-02-20T19:48:05.880Z,24.70
2018-02-20T19:50:34.174Z,24.60
2018-02-20T19:53:02.493Z,25.13
2018-02-20T19:55:30.786Z,24.40
2018-02-20T19:57:59.103Z,23.37
2018-02-20T20:00:27.428Z,22.57
2018-02-20T20:02:55.700Z,22.83
2018-02-20T20:05:24.012Z,23.67
2018-02-20T20:07:52.277Z,22.83
2018-02-20T20:10:20.569Z,23.98
2018-02-20T20:12:48.937Z,23.90
2018-02-20T20:15:17.147Z,24.50
2018-02-20T20:17:45.413Z,23.95
2018-02-20T20:20:13.812Z,24.27
2018-02-20T20:22:42.137Z,25.00
2018-02-20T20:25:12.952Z,25.37
2018-02-20T20:27:41.250Z,25.47
2018-02-20T20:30:09.586Z,24.20
2018-02-20T20:32:37.863Z,24.47
2018-02-20T20:35:06.127Z,24.85
2018-02-20T20:37:35.228Z,26.50
2018-02-20T20:40:03.504Z,23.60
2018-02-20T20:42:31.820Z,25.27
2018-02-20T20:45:00.100Z,27.40
2018-02-20T20:47:28.434Z,24.90
2018-02-20T20:49:56.748Z,25.20
2018-02-20T20:52:25.025Z,24.23
2018-02-20T20:54:53.319Z,25.13
2018-02-20T20:57:21.589Z,24.03
2018-02-20T20:59:49.908Z,25.30
2018-02-20T21:02:18.221Z,24.63
2018-02-20T21:04:46.493Z,25.07
2018-02-20T21:07:14.787Z,25.50
2018-02-20T21:09:43.049Z,25.13
2018-02-20T21:12:11.384Z,24.27
2018-02-20T21:17:14.147Z,25.73
2018-02-20T21:19:42.543Z,25.17
2018-02-20T21:22:10.880Z,23.77
2018-02-20T21:24:39.167Z,25.60
2018-02-20T21:27:08.163Z,24.05
2018-02-20T21:29:36.438Z,23.30
2018-02-20T21:32:04.930Z,23.30
2018-02-20T21:34:33.216Z,25.00
2018-02-20T21:37:01.484Z,23.23
2018-02-20T21:39:29.826Z,22.40
2018-02-20T21:41:58.111Z,23.23
2018-02-20T21:44:26.403Z,24.00
2018-02-20T21:46:54.681Z,22.73
2018-02-20T21:49:23.064Z,23.93
2018-02-20T21:51:51.297Z,23.77
2018-02-20T21:54:19.634Z,23.58
2018-02-20T21:56:47.906Z,24.40
2018-02-20T21:59:16.184Z,24.70
2018-02-20T22:01:44.528Z,25.30
2018-02-20T22:04:12.787Z,24.80
2018-02-20T22:06:41.090Z,24.70
2018-02-20T22:09:09.387Z,24.35
2018-02-20T22:11:37.674Z,24.70
2018-02-20T22:14:05.934Z,24.53
2018-02-20T22:16:34.235Z,26.37
2018-02-20T22:19:02.490Z,24.00
2018-02-20T22:21:30.777Z,24.40
2018-02-20T22:23:59.088Z,24.30
2018-02-20T22:26:27.388Z,24.60
2018-02-20T22:28:55.702Z,22.57
2018-02-20T22:31:23.980Z,22.30
2018-02-20T22:33:52.276Z,22.97
2018-02-20T22:36:20.541Z,22.10
2018-02-20T22:38:48.841Z,21.97
2018-02-20T22:41:17.119Z,23.10
2018-02-20T22:43:45.413Z,20.60
2018-02-20T22:46:13.697Z,21.83
2018-02-20T22:48:41.995Z,21.97
2018-02-20T22:51:10.296Z,21.80
2018-02-20T22:53:38.605Z,21.13
2018-02-20T22:56:06.876Z,22.65
2018-02-20T22:58:35.184Z,22.43
2018-02-20T23:01:03.492Z,22.40
2018-02-20T23:03:31.779Z,22.33
2018-02-20T23:06:00.088Z,21.80
2018-02-20T23:08:28.376Z,22.13
2018-02-20T23:10:56.695Z,22.60
2018-02-20T23:13:24.964Z,21.67
2018-02-20T23:15:54.084Z,22.70
2018-02-20T23:18:22.340Z,21.90
2018-02-20T23:20:50.644Z,23.00
2018-02-20T23:23:18.920Z,22.20
2018-02-20T23:25:47.244Z,21.67
2018-02-20T23:28:15.528Z,22.70
2018-02-20T23:30:43.803Z,22.85
2018-02-20T23:33:12.108Z,23.47
2018-02-20T23:35:40.397Z,22.70
2018-02-20T23:38:08.711Z,23.63
2018-02-20T23:40:37.000Z,22.97
2018-02-20T23:43:05.301Z,23.20
2018-02-20T23:45:34.172Z,23.30
2018-02-20T23:48:02.469Z,24.57
2018-02-20T23:50:30.756Z,23.90
2018-02-20T23:52:59.061Z,22.37
2018-02-20T23:55:27.347Z,23.40
2018-02-20T23:57:55.689Z,23.60
